sensor_id;sensor_type;location;lat;lon;timestamp;P1;durP1;ratioP1;P2;durP2;ratioP2
8297;SDS011;4187;42.778;23.242;2023-03-31T00:01:08;18.98;;;10.32;;
8297;SDS011;4187;42.778;23.242;2023-03-31T00:03:35;18.17;;;11.57;;
8297;SDS011;4187;42.778;23.242;2023-03-31T00:06:08;24.03;;;16.33;;
8297;SDS011;4187;42.778;23.242;2023-03-31T00:08:36;20.63;;;12.20;;
8297;SDS011;4187;42.778;23.242;2023-03-31T00:11:04;26.23;;;11.53;;
8297;SDS011;4187;42.778;23.242;2023-03-31T00:13:34;15.70;;;9.90;;
8297;SDS011;4187;42.778;23.242;2023-03-31T00:16:02;18.17;;;10.07;;
8297;SDS011;4187;42.778;23.242;2023-03-31T00:18:30;15.30;;;10.30;;
8297;SDS011;4187;42.778;23.242;2023-03-31T00:21:07;12.93;;;9.70;;
8297;SDS011;4187;42.778;23.242;2023-03-31T00:23:38;12.63;;;7.70;;
8297;SDS011;4187;42.778;23.242;2023-03-31T00:26:05;5.53;;;3.17;;
8297;SDS011;4187;42.778;23.242;2023-03-31T00:28:34;4.07;;;3.00;;
8297;SDS011;4187;42.778;23.242;2023-03-31T00:31:01;5.27;;;2.90;;
8297;SDS011;4187;42.778;23.242;2023-03-31T00:33:28;5.33;;;2.83;;
8297;SDS011;4187;42.778;23.242;2023-03-31T00:35:56;3.87;;;2.70;;
8297;SDS011;4187;42.778;23.242;2023-03-31T00:38:26;5.23;;;3.30;;
8297;SDS011;4187;42.778;23.242;2023-03-31T00:40:54;4.77;;;3.00;;
8297;SDS011;4187;42.778;23.242;2023-03-31T00:43:29;8.33;;;3.47;;
8297;SDS011;4187;42.778;23.242;2023-03-31T00:46:06;5.97;;;2.87;;
8297;SDS011;4187;42.778;23.242;2023-03-31T00:48:42;6.90;;;3.00;;
8297;SDS011;4187;42.778;23.242;2023-03-31T00:51:14;4.97;;;3.83;;
8297;SDS011;4187;42.778;23.242;2023-03-31T00:53:41;6.90;;;4.10;;
8297;SDS011;4187;42.778;23.242;2023-03-31T00:56:10;8.83;;;3.53;;
8297;SDS011;4187;42.778;23.242;2023-03-31T00:58:40;10.40;;;3.60;;
8297;SDS011;4187;42.778;23.242;2023-03-31T01:01:11;7.83;;;3.20;;
8297;SDS011;4187;42.778;23.242;2023-03-31T01:03:42;7.00;;;2.87;;
8297;SDS011;4187;42.778;23.242;2023-03-31T01:06:10;7.63;;;3.53;;
8297;SDS011;4187;42.778;23.242;2023-03-31T01:08:38;7.35;;;2.90;;
8297;SDS011;4187;42.778;23.242;2023-03-31T01:11:08;8.75;;;3.83;;
8297;SDS011;4187;42.778;23.242;2023-03-31T01:13:37;8.00;;;3.87;;
8297;SDS011;4187;42.778;23.242;2023-03-31T01:16:06;8.05;;;3.65;;
8297;SDS011;4187;42.778;23.242;2023-03-31T01:18:34;8.07;;;3.35;;
8297;SDS011;4187;42.778;23.242;2023-03-31T01:27:36;6.53;;;3.17;;
8297;SDS011;4187;42.778;23.242;2023-03-31T01:30:21;8.13;;;4.13;;
8297;SDS011;4187;42.778;23.242;2023-03-31T01:33:06;8.83;;;3.73;;
8297;SDS011;4187;42.778;23.242;2023-03-31T01:36:04;7.18;;;3.90;;
8297;SDS011;4187;42.778;23.242;2023-03-31T01:42:08;11.20;;;3.92;;
8297;SDS011;4187;42.778;23.242;2023-03-31T01:44:43;10.77;;;3.88;;
8297;SDS011;4187;42.778;23.242;2023-03-31T01:47:14;9.15;;;4.13;;
8297;SDS011;4187;42.778;23.242;2023-03-31T01:49:49;7.88;;;3.83;;
8297;SDS011;4187;42.778;23.242;2023-03-31T01:52:24;10.70;;;3.95;;
8297;SDS011;4187;42.778;23.242;2023-03-31T01:54:59;7.47;;;4.03;;
8297;SDS011;4187;42.778;23.242;2023-03-31T01:57:30;7.38;;;3.13;;
8297;SDS011;4187;42.778;23.242;2023-03-31T02:00:01;9.93;;;3.53;;
8297;SDS011;4187;42.778;23.242;2023-03-31T02:02:34;6.80;;;3.42;;
8297;SDS011;4187;42.778;23.242;2023-03-31T02:05:05;11.52;;;3.25;;
8297;SDS011;4187;42.778;23.242;2023-03-31T02:07:36;4.78;;;3.38;;
8297;SDS011;4187;42.778;23.242;2023-03-31T02:10:10;8.45;;;3.10;;
8297;SDS011;4187;42.778;23.242;2023-03-31T02:12:39;6.78;;;3.42;;
8297;SDS011;4187;42.778;23.242;2023-03-31T02:15:09;4.82;;;2.80;;
8297;SDS011;4187;42.778;23.242;2023-03-31T02:17:40;7.90;;;3.83;;
8297;SDS011;4187;42.778;23.242;2023-03-31T02:20:12;5.15;;;3.03;;
8297;SDS011;4187;42.778;23.242;2023-03-31T02:22:44;6.32;;;2.75;;
8297;SDS011;4187;42.778;23.242;2023-03-31T02:25:16;4.72;;;2.30;;
8297;SDS011;4187;42.778;23.242;2023-03-31T02:27:48;4.53;;;2.60;;
8297;SDS011;4187;42.778;23.242;2023-03-31T02:30:19;6.43;;;2.10;;
8297;SDS011;4187;42.778;23.242;2023-03-31T02:32:46;3.83;;;2.72;;
8297;SDS011;4187;42.778;23.242;2023-03-31T02:35:14;4.15;;;2.50;;
8297;SDS011;4187;42.778;23.242;2023-03-31T02:37:43;4.30;;;2.47;;
8297;SDS011;4187;42.778;23.242;2023-03-31T02:40:11;3.65;;;2.40;;
8297;SDS011;4187;42.778;23.242;2023-03-31T02:42:43;4.63;;;3.08;;
8297;SDS011;4187;42.778;23.242;2023-03-31T02:48:03;5.28;;;2.63;;
8297;SDS011;4187;42.778;23.242;2023-03-31T02:50:33;6.28;;;3.58;;
8297;SDS011;4187;42.778;23.242;2023-03-31T02:53:11;6.22;;;4.90;;
8297;SDS011;4187;42.778;23.242;2023-03-31T02:55:52;4.97;;;3.63;;
8297;SDS011;4187;42.778;23.242;2023-03-31T02:58:39;4.43;;;3.90;;
8297;SDS011;4187;42.778;23.242;2023-03-31T03:01:26;12.93;;;7.50;;
8297;SDS011;4187;42.778;23.242;2023-03-31T03:04:10;6.28;;;3.92;;
8297;SDS011;4187;42.778;23.242;2023-03-31T03:06:54;17.88;;;10.27;;
8297;SDS011;4187;42.778;23.242;2023-03-31T03:09:33;10.43;;;4.85;;
8297;SDS011;4187;42.778;23.242;2023-03-31T03:12:09;4.93;;;2.78;;
8297;SDS011;4187;42.778;23.242;2023-03-31T03:14:45;3.35;;;2.38;;
8297;SDS011;4187;42.778;23.242;2023-03-31T03:17:17;4.80;;;2.38;;
8297;SDS011;4187;42.778;23.242;2023-03-31T03:19:52;5.22;;;2.50;;
8297;SDS011;4187;42.778;23.242;2023-03-31T03:22:20;4.53;;;2.95;;
8297;SDS011;4187;42.778;23.242;2023-03-31T03:24:47;5.18;;;2.70;;
8297;SDS011;4187;42.778;23.242;2023-03-31T03:27:14;5.00;;;2.53;;
8297;SDS011;4187;42.778;23.242;2023-03-31T03:29:41;3.67;;;2.38;;
8297;SDS011;4187;42.778;23.242;2023-03-31T03:32:09;5.00;;;2.85;;
8297;SDS011;4187;42.778;23.242;2023-03-31T03:34:36;3.80;;;2.50;;
8297;SDS011;4187;42.778;23.242;2023-03-31T03:37:03;3.78;;;2.17;;
8297;SDS011;4187;42.778;23.242;2023-03-31T03:39:31;5.95;;;3.83;;
8297;SDS011;4187;42.778;23.242;2023-03-31T03:41:57;7.88;;;3.05;;
8297;SDS011;4187;42.778;23.242;2023-03-31T03:44:25;10.20;;;2.60;;
8297;SDS011;4187;42.778;23.242;2023-03-31T03:46:51;5.00;;;3.20;;
8297;SDS011;4187;42.778;23.242;2023-03-31T03:49:19;8.90;;;2.70;;
8297;SDS011;4187;42.778;23.242;2023-03-31T03:51:46;6.57;;;3.70;;
8297;SDS011;4187;42.778;23.242;2023-03-31T03:54:13;5.22;;;3.17;;
8297;SDS011;4187;42.778;23.242;2023-03-31T03:56:41;6.65;;;2.88;;
8297;SDS011;4187;42.778;23.242;2023-03-31T03:59:09;4.93;;;3.03;;
8297;SDS011;4187;42.778;23.242;2023-03-31T04:01:36;6.22;;;2.85;;
8297;SDS011;4187;42.778;23.242;2023-03-31T04:04:03;7.53;;;3.65;;
8297;SDS011;4187;42.778;23.242;2023-03-31T04:06:32;5.85;;;3.35;;
8297;SDS011;4187;42.778;23.242;2023-03-31T04:08:58;4.78;;;3.08;;
8297;SDS011;4187;42.778;23.242;2023-03-31T04:11:25;6.88;;;4.72;;
8297;SDS011;4187;42.778;23.242;2023-03-31T04:13:52;10.45;;;8.30;;
8297;SDS011;4187;42.778;23.242;2023-03-31T04:16:19;11.48;;;6.20;;
8297;SDS011;4187;42.778;23.242;2023-03-31T04:18:47;10.27;;;5.60;;
8297;SDS011;4187;42.778;23.242;2023-03-31T04:21:14;7.18;;;4.18;;
8297;SDS011;4187;42.778;23.242;2023-03-31T04:23:48;5.93;;;4.10;;
8297;SDS011;4187;42.778;23.242;2023-03-31T04:26:23;9.15;;;5.80;;
8297;SDS011;4187;42.778;23.242;2023-03-31T04:28:55;7.20;;;6.32;;
8297;SDS011;4187;42.778;23.242;2023-03-31T04:31:24;8.52;;;3.85;;
8297;SDS011;4187;42.778;23.242;2023-03-31T04:33:54;7.18;;;2.97;;
8297;SDS011;4187;42.778;23.242;2023-03-31T04:36:25;6.80;;;3.10;;
8297;SDS011;4187;42.778;23.242;2023-03-31T04:38:54;4.75;;;2.70;;
8297;SDS011;4187;42.778;23.242;2023-03-31T04:41:22;6.88;;;2.40;;
8297;SDS011;4187;42.778;23.242;2023-03-31T04:43:51;6.15;;;2.65;;
8297;SDS011;4187;42.778;23.242;2023-03-31T04:46:18;7.13;;;3.00;;
8297;SDS011;4187;42.778;23.242;2023-03-31T04:48:45;3.97;;;2.50;;
8297;SDS011;4187;42.778;23.242;2023-03-31T04:51:12;4.50;;;2.40;;
8297;SDS011;4187;42.778;23.242;2023-03-31T04:53:39;6.40;;;2.10;;
8297;SDS011;4187;42.778;23.242;2023-03-31T04:56:07;4.68;;;2.47;;
8297;SDS011;4187;42.778;23.242;2023-03-31T04:58:34;4.70;;;2.80;;
8297;SDS011;4187;42.778;23.242;2023-03-31T05:01:01;5.88;;;2.70;;
8297;SDS011;4187;42.778;23.242;2023-03-31T05:03:30;5.50;;;2.78;;
8297;SDS011;4187;42.778;23.242;2023-03-31T05:05:57;3.65;;;2.08;;
8297;SDS011;4187;42.778;23.242;2023-03-31T05:08:24;3.70;;;2.30;;
8297;SDS011;4187;42.778;23.242;2023-03-31T05:10:52;5.18;;;2.95;;
8297;SDS011;4187;42.778;23.242;2023-03-31T05:13:20;5.45;;;2.60;;
8297;SDS011;4187;42.778;23.242;2023-03-31T05:15:47;7.20;;;2.47;;
8297;SDS011;4187;42.778;23.242;2023-03-31T05:18:15;5.43;;;2.83;;
8297;SDS011;4187;42.778;23.242;2023-03-31T05:20:42;7.25;;;2.78;;
8297;SDS011;4187;42.778;23.242;2023-03-31T05:23:09;6.97;;;2.83;;
8297;SDS011;4187;42.778;23.242;2023-03-31T05:25:37;5.03;;;2.67;;
8297;SDS011;4187;42.778;23.242;2023-03-31T05:28:04;5.18;;;2.75;;
8297;SDS011;4187;42.778;23.242;2023-03-31T05:30:32;4.40;;;2.55;;
8297;SDS011;4187;42.778;23.242;2023-03-31T05:32:59;7.75;;;3.15;;
8297;SDS011;4187;42.778;23.242;2023-03-31T05:35:26;9.05;;;3.38;;
8297;SDS011;4187;42.778;23.242;2023-03-31T05:37:54;5.95;;;3.28;;
8297;SDS011;4187;42.778;23.242;2023-03-31T05:40:20;8.50;;;3.45;;
8297;SDS011;4187;42.778;23.242;2023-03-31T05:42:47;7.47;;;2.92;;
8297;SDS011;4187;42.778;23.242;2023-03-31T05:45:14;5.75;;;3.70;;
8297;SDS011;4187;42.778;23.242;2023-03-31T05:47:42;9.48;;;5.38;;
8297;SDS011;4187;42.778;23.242;2023-03-31T05:50:09;7.78;;;4.13;;
8297;SDS011;4187;42.778;23.242;2023-03-31T05:52:36;6.32;;;3.85;;
8297;SDS011;4187;42.778;23.242;2023-03-31T05:55:03;8.82;;;2.97;;
8297;SDS011;4187;42.778;23.242;2023-03-31T05:57:30;9.85;;;3.60;;
8297;SDS011;4187;42.778;23.242;2023-03-31T05:59:57;6.65;;;4.40;;
8297;SDS011;4187;42.778;23.242;2023-03-31T06:02:24;8.68;;;5.03;;
8297;SDS011;4187;42.778;23.242;2023-03-31T06:04:52;9.45;;;4.45;;
8297;SDS011;4187;42.778;23.242;2023-03-31T06:07:19;9.18;;;4.35;;
8297;SDS011;4187;42.778;23.242;2023-03-31T06:09:49;11.82;;;4.13;;
8297;SDS011;4187;42.778;23.242;2023-03-31T06:12:15;10.23;;;4.00;;
8297;SDS011;4187;42.778;23.242;2023-03-31T06:14:42;10.30;;;3.92;;
8297;SDS011;4187;42.778;23.242;2023-03-31T06:17:09;8.23;;;3.60;;
8297;SDS011;4187;42.778;23.242;2023-03-31T06:19:36;9.70;;;3.75;;
8297;SDS011;4187;42.778;23.242;2023-03-31T06:22:05;5.65;;;3.58;;
8297;SDS011;4187;42.778;23.242;2023-03-31T06:24:32;11.35;;;3.88;;
8297;SDS011;4187;42.778;23.242;2023-03-31T06:26:59;9.70;;;3.67;;
8297;SDS011;4187;42.778;23.242;2023-03-31T06:29:26;7.40;;;2.72;;
8297;SDS011;4187;42.778;23.242;2023-03-31T06:31:53;6.82;;;3.08;;
8297;SDS011;4187;42.778;23.242;2023-03-31T06:34:20;5.25;;;2.58;;
8297;SDS011;4187;42.778;23.242;2023-03-31T06:36:47;4.75;;;2.60;;
8297;SDS011;4187;42.778;23.242;2023-03-31T06:39:15;3.70;;;2.20;;
8297;SDS011;4187;42.778;23.242;2023-03-31T06:41:42;5.30;;;2.97;;
8297;SDS011;4187;42.778;23.242;2023-03-31T06:44:08;5.80;;;2.50;;
8297;SDS011;4187;42.778;23.242;2023-03-31T06:46:35;8.80;;;2.20;;
8297;SDS011;4187;42.778;23.242;2023-03-31T06:49:02;8.20;;;2.63;;
8297;SDS011;4187;42.778;23.242;2023-03-31T06:51:29;5.85;;;2.42;;
8297;SDS011;4187;42.778;23.242;2023-03-31T06:53:56;6.22;;;2.65;;
8297;SDS011;4187;42.778;23.242;2023-03-31T06:56:24;6.03;;;2.47;;
8297;SDS011;4187;42.778;23.242;2023-03-31T06:58:52;7.85;;;3.58;;
8297;SDS011;4187;42.778;23.242;2023-03-31T07:01:19;3.60;;;2.20;;
8297;SDS011;4187;42.778;23.242;2023-03-31T07:03:46;5.95;;;2.60;;
8297;SDS011;4187;42.778;23.242;2023-03-31T07:06:12;2.92;;;2.00;;
8297;SDS011;4187;42.778;23.242;2023-03-31T07:08:39;4.65;;;2.20;;
8297;SDS011;4187;42.778;23.242;2023-03-31T07:11:06;5.65;;;2.50;;
8297;SDS011;4187;42.778;23.242;2023-03-31T07:13:37;7.65;;;2.67;;
8297;SDS011;4187;42.778;23.242;2023-03-31T07:16:04;4.97;;;2.53;;
8297;SDS011;4187;42.778;23.242;2023-03-31T07:18:31;9.50;;;4.18;;
8297;SDS011;4187;42.778;23.242;2023-03-31T07:20:59;2.60;;;1.98;;
8297;SDS011;4187;42.778;23.242;2023-03-31T07:23:25;7.63;;;2.50;;
8297;SDS011;4187;42.778;23.242;2023-03-31T07:25:52;4.70;;;1.92;;
8297;SDS011;4187;42.778;23.242;2023-03-31T07:28:19;4.28;;;2.55;;
8297;SDS011;4187;42.778;23.242;2023-03-31T07:30:49;4.60;;;2.55;;
8297;SDS011;4187;42.778;23.242;2023-03-31T07:33:15;4.43;;;2.78;;
8297;SDS011;4187;42.778;23.242;2023-03-31T07:35:42;5.35;;;2.47;;
8297;SDS011;4187;42.778;23.242;2023-03-31T07:38:09;6.97;;;2.50;;
8297;SDS011;4187;42.778;23.242;2023-03-31T07:40:37;3.60;;;2.13;;
8297;SDS011;4187;42.778;23.242;2023-03-31T07:43:04;5.72;;;2.38;;
8297;SDS011;4187;42.778;23.242;2023-03-31T07:45:32;5.18;;;2.38;;
8297;SDS011;4187;42.778;23.242;2023-03-31T07:48:01;5.28;;;2.22;;
8297;SDS011;4187;42.778;23.242;2023-03-31T07:50:28;3.28;;;2.22;;
8297;SDS011;4187;42.778;23.242;2023-03-31T07:52:55;4.18;;;2.33;;
8297;SDS011;4187;42.778;23.242;2023-03-31T07:55:22;5.03;;;2.15;;
8297;SDS011;4187;42.778;23.242;2023-03-31T07:57:50;3.78;;;2.67;;
8297;SDS011;4187;42.778;23.242;2023-03-31T08:00:17;2.88;;;2.17;;
8297;SDS011;4187;42.778;23.242;2023-03-31T08:02:45;8.48;;;2.80;;
8297;SDS011;4187;42.778;23.242;2023-03-31T08:05:14;5.07;;;2.42;;
8297;SDS011;4187;42.778;23.242;2023-03-31T08:07:43;3.75;;;2.30;;
8297;SDS011;4187;42.778;23.242;2023-03-31T08:10:12;3.40;;;2.05;;
8297;SDS011;4187;42.778;23.242;2023-03-31T08:12:40;5.40;;;2.72;;
8297;SDS011;4187;42.778;23.242;2023-03-31T08:15:07;6.32;;;2.30;;
8297;SDS011;4187;42.778;23.242;2023-03-31T08:17:35;4.20;;;1.98;;
8297;SDS011;4187;42.778;23.242;2023-03-31T08:20:02;4.22;;;2.28;;
8297;SDS011;4187;42.778;23.242;2023-03-31T08:22:33;6.20;;;2.00;;
8297;SDS011;4187;42.778;23.242;2023-03-31T08:25:00;5.05;;;2.30;;
8297;SDS011;4187;42.778;23.242;2023-03-31T08:27:27;6.05;;;2.63;;
8297;SDS011;4187;42.778;23.242;2023-03-31T08:29:53;5.80;;;2.28;;
8297;SDS011;4187;42.778;23.242;2023-03-31T08:32:21;5.07;;;2.38;;
8297;SDS011;4187;42.778;23.242;2023-03-31T08:34:49;6.13;;;2.30;;
8297;SDS011;4187;42.778;23.242;2023-03-31T08:37:16;4.65;;;3.05;;
8297;SDS011;4187;42.778;23.242;2023-03-31T08:39:44;4.55;;;2.58;;
8297;SDS011;4187;42.778;23.242;2023-03-31T08:42:12;5.28;;;2.20;;
8297;SDS011;4187;42.778;23.242;2023-03-31T08:44:42;3.50;;;1.95;;
8297;SDS011;4187;42.778;23.242;2023-03-31T08:47:12;2.38;;;1.90;;
8297;SDS011;4187;42.778;23.242;2023-03-31T08:49:44;3.83;;;1.80;;
8297;SDS011;4187;42.778;23.242;2023-03-31T08:52:16;8.90;;;2.28;;
8297;SDS011;4187;42.778;23.242;2023-03-31T08:54:50;3.97;;;2.22;;
8297;SDS011;4187;42.778;23.242;2023-03-31T08:57:23;5.90;;;2.58;;
8297;SDS011;4187;42.778;23.242;2023-03-31T08:59:52;3.78;;;2.35;;
8297;SDS011;4187;42.778;23.242;2023-03-31T09:02:24;3.05;;;2.35;;
8297;SDS011;4187;42.778;23.242;2023-03-31T09:05:04;5.22;;;2.40;;
8297;SDS011;4187;42.778;23.242;2023-03-31T09:07:46;2.85;;;2.30;;
8297;SDS011;4187;42.778;23.242;2023-03-31T09:10:24;4.85;;;2.30;;
8297;SDS011;4187;42.778;23.242;2023-03-31T09:13:01;4.82;;;1.85;;
8297;SDS011;4187;42.778;23.242;2023-03-31T09:15:44;2.35;;;2.00;;
8297;SDS011;4187;42.778;23.242;2023-03-31T09:18:17;2.55;;;2.10;;
8297;SDS011;4187;42.778;23.242;2023-03-31T09:20:48;4.93;;;2.38;;
8297;SDS011;4187;42.778;23.242;2023-03-31T09:23:20;6.47;;;1.98;;
8297;SDS011;4187;42.778;23.242;2023-03-31T09:25:53;3.03;;;1.98;;
8297;SDS011;4187;42.778;23.242;2023-03-31T09:28:22;4.35;;;2.13;;
8297;SDS011;4187;42.778;23.242;2023-03-31T09:30:54;3.33;;;2.15;;
8297;SDS011;4187;42.778;23.242;2023-03-31T09:33:23;5.75;;;2.20;;
8297;SDS011;4187;42.778;23.242;2023-03-31T09:35:56;5.88;;;2.13;;
8297;SDS011;4187;42.778;23.242;2023-03-31T09:38:23;3.50;;;2.17;;
8297;SDS011;4187;42.778;23.242;2023-03-31T09:40:55;4.55;;;2.20;;
8297;SDS011;4187;42.778;23.242;2023-03-31T09:43:23;4.50;;;2.05;;
8297;SDS011;4187;42.778;23.242;2023-03-31T09:45:53;4.97;;;1.90;;
8297;SDS011;4187;42.778;23.242;2023-03-31T09:48:20;7.70;;;2.17;;
8297;SDS011;4187;42.778;23.242;2023-03-31T09:50:52;4.47;;;2.38;;
8297;SDS011;4187;42.778;23.242;2023-03-31T09:53:24;7.40;;;2.00;;
8297;SDS011;4187;42.778;23.242;2023-03-31T09:56:01;3.40;;;1.80;;
8297;SDS011;4187;42.778;23.242;2023-03-31T09:58:30;7.82;;;1.83;;
8297;SDS011;4187;42.778;23.242;2023-03-31T10:01:05;3.97;;;2.13;;
8297;SDS011;4187;42.778;23.242;2023-03-31T10:03:48;7.95;;;1.70;;
8297;SDS011;4187;42.778;23.242;2023-03-31T10:06:18;4.63;;;1.88;;
8297;SDS011;4187;42.778;23.242;2023-03-31T10:08:46;4.75;;;2.20;;
8297;SDS011;4187;42.778;23.242;2023-03-31T10:11:18;4.95;;;1.92;;
8297;SDS011;4187;42.778;23.242;2023-03-31T10:13:46;4.65;;;1.88;;
8297;SDS011;4187;42.778;23.242;2023-03-31T10:16:20;4.18;;;1.55;;
8297;SDS011;4187;42.778;23.242;2023-03-31T10:18:48;2.63;;;1.75;;
8297;SDS011;4187;42.778;23.242;2023-03-31T10:21:17;4.70;;;2.08;;
8297;SDS011;4187;42.778;23.242;2023-03-31T10:23:48;3.72;;;1.77;;
8297;SDS011;4187;42.778;23.242;2023-03-31T10:26:16;5.68;;;2.10;;
8297;SDS011;4187;42.778;23.242;2023-03-31T10:28:47;4.60;;;2.10;;
8297;SDS011;4187;42.778;23.242;2023-03-31T10:31:16;5.80;;;2.30;;
8297;SDS011;4187;42.778;23.242;2023-03-31T10:33:45;2.72;;;1.75;;
8297;SDS011;4187;42.778;23.242;2023-03-31T10:36:17;3.38;;;2.22;;
8297;SDS011;4187;42.778;23.242;2023-03-31T10:38:47;6.07;;;2.30;;
8297;SDS011;4187;42.778;23.242;2023-03-31T10:41:18;3.78;;;1.95;;
8297;SDS011;4187;42.778;23.242;2023-03-31T10:43:48;2.60;;;1.80;;
8297;SDS011;4187;42.778;23.242;2023-03-31T10:46:16;5.30;;;2.10;;
8297;SDS011;4187;42.778;23.242;2023-03-31T10:48:44;5.90;;;2.20;;
8297;SDS011;4187;42.778;23.242;2023-03-31T10:51:13;3.47;;;1.80;;
8297;SDS011;4187;42.778;23.242;2023-03-31T10:53:42;4.05;;;1.80;;
8297;SDS011;4187;42.778;23.242;2023-03-31T10:56:24;6.30;;;2.28;;
8297;SDS011;4187;42.778;23.242;2023-03-31T10:59:06;4.50;;;2.03;;
8297;SDS011;4187;42.778;23.242;2023-03-31T11:01:46;4.28;;;1.85;;
8297;SDS011;4187;42.778;23.242;2023-03-31T11:07:12;3.50;;;1.88;;
8297;SDS011;4187;42.778;23.242;2023-03-31T11:09:55;4.25;;;2.10;;
8297;SDS011;4187;42.778;23.242;2023-03-31T11:12:37;4.53;;;2.03;;
8297;SDS011;4187;42.778;23.242;2023-03-31T11:15:13;4.95;;;2.47;;
8297;SDS011;4187;42.778;23.242;2023-03-31T11:17:56;6.57;;;2.35;;
8297;SDS011;4187;42.778;23.242;2023-03-31T11:20:41;4.20;;;1.75;;
8297;SDS011;4187;42.778;23.242;2023-03-31T11:23:20;2.90;;;1.90;;
8297;SDS011;4187;42.778;23.242;2023-03-31T11:25:56;2.72;;;1.77;;
8297;SDS011;4187;42.778;23.242;2023-03-31T11:28:32;6.90;;;1.88;;
8297;SDS011;4187;42.778;23.242;2023-03-31T11:31:19;4.97;;;2.03;;
8297;SDS011;4187;42.778;23.242;2023-03-31T11:33:56;3.60;;;1.92;;
8297;SDS011;4187;42.778;23.242;2023-03-31T11:36:39;4.30;;;2.05;;
8297;SDS011;4187;42.778;23.242;2023-03-31T11:39:23;4.72;;;1.80;;
8297;SDS011;4187;42.778;23.242;2023-03-31T11:42:00;3.70;;;1.80;;
8297;SDS011;4187;42.778;23.242;2023-03-31T11:44:34;8.65;;;2.40;;
8297;SDS011;4187;42.778;23.242;2023-03-31T11:47:07;3.35;;;2.05;;
8297;SDS011;4187;42.778;23.242;2023-03-31T11:49:38;3.25;;;1.80;;
8297;SDS011;4187;42.778;23.242;2023-03-31T11:52:13;3.75;;;1.98;;
8297;SDS011;4187;42.778;23.242;2023-03-31T11:54:42;5.78;;;2.28;;
8297;SDS011;4187;42.778;23.242;2023-03-31T11:57:17;4.38;;;2.05;;
8297;SDS011;4187;42.778;23.242;2023-03-31T11:59:51;9.60;;;2.25;;
8297;SDS011;4187;42.778;23.242;2023-03-31T12:02:23;3.88;;;2.08;;
8297;SDS011;4187;42.778;23.242;2023-03-31T12:05:01;6.25;;;2.03;;
8297;SDS011;4187;42.778;23.242;2023-03-31T12:07:31;5.28;;;2.10;;
8297;SDS011;4187;42.778;23.242;2023-03-31T12:10:02;5.10;;;2.05;;
8297;SDS011;4187;42.778;23.242;2023-03-31T12:12:41;3.60;;;2.22;;
8297;SDS011;4187;42.778;23.242;2023-03-31T12:15:13;5.70;;;1.88;;
8297;SDS011;4187;42.778;23.242;2023-03-31T12:17:49;3.72;;;1.85;;
8297;SDS011;4187;42.778;23.242;2023-03-31T12:20:24;5.10;;;1.60;;
8297;SDS011;4187;42.778;23.242;2023-03-31T12:22:59;5.05;;;2.08;;
8297;SDS011;4187;42.778;23.242;2023-03-31T12:25:31;4.03;;;2.10;;
8297;SDS011;4187;42.778;23.242;2023-03-31T12:28:07;4.38;;;1.92;;
8297;SDS011;4187;42.778;23.242;2023-03-31T12:30:37;4.28;;;1.75;;
8297;SDS011;4187;42.778;23.242;2023-03-31T12:33:11;3.58;;;1.85;;
8297;SDS011;4187;42.778;23.242;2023-03-31T12:35:45;5.30;;;1.90;;
8297;SDS011;4187;42.778;23.242;2023-03-31T12:38:26;2.75;;;1.70;;
8297;SDS011;4187;42.778;23.242;2023-03-31T12:41:06;4.75;;;1.92;;
8297;SDS011;4187;42.778;23.242;2023-03-31T12:46:32;5.95;;;2.13;;
8297;SDS011;4187;42.778;23.242;2023-03-31T12:49:13;4.20;;;1.95;;
8297;SDS011;4187;42.778;23.242;2023-03-31T12:51:53;3.60;;;2.00;;
8297;SDS011;4187;42.778;23.242;2023-03-31T12:54:42;3.53;;;2.70;;
8297;SDS011;4187;42.778;23.242;2023-03-31T12:57:27;5.10;;;2.20;;
8297;SDS011;4187;42.778;23.242;2023-03-31T13:06:01;4.18;;;2.95;;
8297;SDS011;4187;42.778;23.242;2023-03-31T13:11:15;4.40;;;1.80;;
8297;SDS011;4187;42.778;23.242;2023-03-31T13:13:43;3.78;;;1.88;;
8297;SDS011;4187;42.778;23.242;2023-03-31T13:16:18;6.00;;;1.60;;
8297;SDS011;4187;42.778;23.242;2023-03-31T13:18:49;4.93;;;1.90;;
8297;SDS011;4187;42.778;23.242;2023-03-31T13:21:19;5.05;;;2.03;;
8297;SDS011;4187;42.778;23.242;2023-03-31T13:23:46;6.10;;;1.90;;
8297;SDS011;4187;42.778;23.242;2023-03-31T13:29:10;5.82;;;2.17;;
8297;SDS011;4187;42.778;23.242;2023-03-31T13:34:49;2.60;;;1.67;;
8297;SDS011;4187;42.778;23.242;2023-03-31T13:37:29;4.25;;;1.95;;
8297;SDS011;4187;42.778;23.242;2023-03-31T13:40:30;3.60;;;2.42;;
8297;SDS011;4187;42.778;23.242;2023-03-31T13:43:21;4.07;;;1.90;;
8297;SDS011;4187;42.778;23.242;2023-03-31T13:49:36;5.47;;;2.63;;
8297;SDS011;4187;42.778;23.242;2023-03-31T13:52:12;6.30;;;2.38;;
8297;SDS011;4187;42.778;23.242;2023-03-31T13:54:57;3.67;;;2.08;;
8297;SDS011;4187;42.778;23.242;2023-03-31T13:57:51;3.78;;;2.22;;
8297;SDS011;4187;42.778;23.242;2023-03-31T14:00:41;3.42;;;2.10;;
8297;SDS011;4187;42.778;23.242;2023-03-31T14:03:16;9.45;;;2.78;;
8297;SDS011;4187;42.778;23.242;2023-03-31T14:05:55;8.43;;;4.75;;
8297;SDS011;4187;42.778;23.242;2023-03-31T14:08:29;11.38;;;7.35;;
8297;SDS011;4187;42.778;23.242;2023-03-31T14:11:17;8.85;;;2.55;;
8297;SDS011;4187;42.778;23.242;2023-03-31T14:13:58;8.65;;;2.58;;
8297;SDS011;4187;42.778;23.242;2023-03-31T14:16:27;6.25;;;1.90;;
8297;SDS011;4187;42.778;23.242;2023-03-31T14:18:59;4.97;;;2.10;;
8297;SDS011;4187;42.778;23.242;2023-03-31T14:21:42;4.63;;;1.83;;
8297;SDS011;4187;42.778;23.242;2023-03-31T14:24:15;5.15;;;2.22;;
8297;SDS011;4187;42.778;23.242;2023-03-31T14:26:56;8.65;;;2.30;;
8297;SDS011;4187;42.778;23.242;2023-03-31T14:29:30;4.95;;;2.20;;
8297;SDS011;4187;42.778;23.242;2023-03-31T14:32:08;5.22;;;2.20;;
8297;SDS011;4187;42.778;23.242;2023-03-31T14:34:49;5.30;;;2.40;;
8297;SDS011;4187;42.778;23.242;2023-03-31T14:37:23;5.95;;;2.25;;
8297;SDS011;4187;42.778;23.242;2023-03-31T14:39:52;5.07;;;2.33;;
8297;SDS011;4187;42.778;23.242;2023-03-31T14:42:24;5.40;;;2.25;;
8297;SDS011;4187;42.778;23.242;2023-03-31T14:44:54;5.43;;;2.00;;
8297;SDS011;4187;42.778;23.242;2023-03-31T14:47:22;7.38;;;2.67;;
8297;SDS011;4187;42.778;23.242;2023-03-31T14:49:57;4.35;;;1.98;;
8297;SDS011;4187;42.778;23.242;2023-03-31T14:52:28;3.22;;;1.83;;
8297;SDS011;4187;42.778;23.242;2023-03-31T14:54:56;4.13;;;2.15;;
8297;SDS011;4187;42.778;23.242;2023-03-31T14:57:26;5.45;;;1.98;;
8297;SDS011;4187;42.778;23.242;2023-03-31T14:59:57;9.95;;;3.55;;
8297;SDS011;4187;42.778;23.242;2023-03-31T15:02:30;8.75;;;2.22;;
8297;SDS011;4187;42.778;23.242;2023-03-31T15:05:00;4.78;;;2.47;;
8297;SDS011;4187;42.778;23.242;2023-03-31T15:07:29;5.72;;;2.08;;
8297;SDS011;4187;42.778;23.242;2023-03-31T15:09:56;4.75;;;2.60;;
8297;SDS011;4187;42.778;23.242;2023-03-31T15:12:23;5.45;;;2.83;;
8297;SDS011;4187;42.778;23.242;2023-03-31T15:14:54;3.90;;;2.05;;
8297;SDS011;4187;42.778;23.242;2023-03-31T15:17:24;10.30;;;2.83;;
8297;SDS011;4187;42.778;23.242;2023-03-31T15:19:54;7.50;;;2.55;;
8297;SDS011;4187;42.778;23.242;2023-03-31T15:22:23;3.67;;;2.55;;
8297;SDS011;4187;42.778;23.242;2023-03-31T15:24:51;5.40;;;3.55;;
8297;SDS011;4187;42.778;23.242;2023-03-31T15:27:29;3.95;;;2.35;;
8297;SDS011;4187;42.778;23.242;2023-03-31T15:30:01;3.85;;;2.40;;
8297;SDS011;4187;42.778;23.242;2023-03-31T15:32:30;5.82;;;3.47;;
8297;SDS011;4187;42.778;23.242;2023-03-31T15:35:00;5.63;;;3.28;;
8297;SDS011;4187;42.778;23.242;2023-03-31T15:37:33;3.03;;;2.28;;
8297;SDS011;4187;42.778;23.242;2023-03-31T15:40:08;4.40;;;2.60;;
8297;SDS011;4187;42.778;23.242;2023-03-31T15:42:45;6.40;;;2.92;;
8297;SDS011;4187;42.778;23.242;2023-03-31T15:45:25;4.55;;;2.20;;
8297;SDS011;4187;42.778;23.242;2023-03-31T15:48:03;6.47;;;2.38;;
8297;SDS011;4187;42.778;23.242;2023-03-31T15:50:31;5.72;;;2.55;;
8297;SDS011;4187;42.778;23.242;2023-03-31T15:52:59;7.60;;;4.32;;
8297;SDS011;4187;42.778;23.242;2023-03-31T15:55:28;6.68;;;4.68;;
8297;SDS011;4187;42.778;23.242;2023-03-31T15:58:22;8.63;;;6.28;;
8297;SDS011;4187;42.778;23.242;2023-03-31T16:01:10;8.60;;;4.32;;
8297;SDS011;4187;42.778;23.242;2023-03-31T16:03:40;6.35;;;2.80;;